createdAt,value
2023-02-09T00:01:37.422Z,97.93
2023-02-09T00:04:06.007Z,97.73
2023-02-09T00:06:34.182Z,97.36
2023-02-09T00:09:03.705Z,96.30
2023-02-09T00:11:51.522Z,95.71
2023-02-09T00:14:22.097Z,95.83
2023-02-09T00:16:52.315Z,95.31
2023-02-09T00:19:21.988Z,94.57
2023-02-09T00:21:50.576Z,93.74
2023-02-09T00:24:18.743Z,93.75
2023-02-09T00:26:47.736Z,92.98
2023-02-09T00:29:17.855Z,92.17
2023-02-09T00:31:45.934Z,91.86
2023-02-09T00:34:15.530Z,91.56
2023-02-09T00:36:45.744Z,90.75
2023-02-09T00:39:14.135Z,90.81
2023-02-09T00:42:00.849Z,90.38
2023-02-09T00:44:29.341Z,89.86
2023-02-09T00:46:58.144Z,89.94
2023-02-09T00:49:26.288Z,90.23
2023-02-09T00:51:54.564Z,90.07
2023-02-09T00:54:23.351Z,90.13
2023-02-09T00:56:52.110Z,90.15
2023-02-09T00:59:20.364Z,90.27
2023-02-09T01:01:48.702Z,90.54
2023-02-09T01:04:17.006Z,90.79
2023-02-09T01:06:45.247Z,90.91
2023-02-09T01:09:13.322Z,90.88
2023-02-09T01:11:42.565Z,91.00
2023-02-09T01:14:13.237Z,91.01
2023-02-09T01:16:41.481Z,91.31
2023-02-09T01:19:13.292Z,91.46
2023-02-09T01:21:41.870Z,91.97
2023-02-09T01:24:14.596Z,91.96
2023-02-09T01:26:42.824Z,92.55
2023-02-09T01:29:17.247Z,92.44
2023-02-09T01:31:46.620Z,92.74
2023-02-09T01:34:18.209Z,93.24
2023-02-09T01:36:50.380Z,93.65
2023-02-09T01:39:18.579Z,93.64
2023-02-09T01:41:46.888Z,93.52
2023-02-09T01:44:15.032Z,93.44
2023-02-09T01:46:44.365Z,93.38
2023-02-09T01:49:17.589Z,93.37
2023-02-09T01:52:01.275Z,93.10
2023-02-09T01:54:37.996Z,93.15
2023-02-09T01:57:10.379Z,93.07
2023-02-09T01:59:42.404Z,92.57
2023-02-09T02:02:11.615Z,92.47
2023-02-09T02:04:43.710Z,92.33
2023-02-09T02:07:20.694Z,92.60
2023-02-09T02:09:50.606Z,92.65
2023-02-09T02:12:19.289Z,92.43
2023-02-09T02:14:47.467Z,92.34
2023-02-09T02:17:25.058Z,92.48
2023-02-09T02:20:13.402Z,92.64
2023-02-09T02:22:56.017Z,92.69
2023-02-09T02:25:55.321Z,92.89
2023-02-09T02:28:37.524Z,92.57
2023-02-09T02:31:15.447Z,93.17
2023-02-09T02:33:46.749Z,93.44
2023-02-09T02:36:30.411Z,93.57
2023-02-09T02:39:05.753Z,93.78
2023-02-09T02:42:24.514Z,94.29
2023-02-09T02:45:30.279Z,95.49
2023-02-09T02:48:20.053Z,95.71
2023-02-09T02:50:57.465Z,95.70
2023-02-09T02:53:29.992Z,96.15
2023-02-09T02:56:06.399Z,96.23
2023-02-09T02:58:39.087Z,96.87
2023-02-09T03:01:13.397Z,97.50
2023-02-09T03:03:44.045Z,98.12
2023-02-09T03:06:14.146Z,99.31
2023-02-09T03:08:51.683Z,99.81
2023-02-09T03:11:22.300Z,99.44
2023-02-09T03:14:11.537Z,99.46
2023-02-09T03:17:00.602Z,99.74
2023-02-09T03:19:52.020Z,100.00
2023-02-09T03:22:42.941Z,100.00
2023-02-09T03:25:25.746Z,100.00
2023-02-09T03:28:07.062Z,100.00
2023-02-09T03:30:37.168Z,100.00
2023-02-09T03:33:06.224Z,100.00
2023-02-09T03:35:39.332Z,100.00
2023-02-09T03:38:07.616Z,100.00
2023-02-09T03:40:36.295Z,100.00
2023-02-09T03:43:04.429Z,100.00
2023-02-09T03:45:32.644Z,100.00
2023-02-09T03:48:00.920Z,100.00
2023-02-09T03:50:30.537Z,100.00
2023-02-09T03:52:59.827Z,100.00
2023-02-09T03:55:28.307Z,100.00
2023-02-09T03:57:56.566Z,100.00
2023-02-09T04:00:24.881Z,100.00
2023-02-09T04:02:53.080Z,100.00
2023-02-09T04:05:22.876Z,100.00
2023-02-09T04:07:51.253Z,100.00
2023-02-09T04:10:19.503Z,100.00
2023-02-09T04:12:48.392Z,100.00
2023-02-09T04:15:16.670Z,100.00
2023-02-09T04:17:44.742Z,100.00
2023-02-09T04:20:12.813Z,100.00
2023-02-09T04:22:41.398Z,100.00
2023-02-09T04:25:09.774Z,100.00
2023-02-09T04:27:37.951Z,100.00
2023-02-09T04:30:06.743Z,100.00
2023-02-09T04:32:35.015Z,100.00
2023-02-09T04:35:03.505Z,100.00
2023-02-09T04:37:31.785Z,100.00
2023-02-09T04:39:59.953Z,100.00
2023-02-09T04:42:28.227Z,100.00
2023-02-09T04:44:56.607Z,100.00
2023-02-09T04:47:25.192Z,100.00
2023-02-09T04:49:53.569Z,100.00
2023-02-09T04:52:21.949Z,100.00
2023-02-09T04:54:50.331Z,100.00
2023-02-09T04:57:36.935Z,100.00
2023-02-09T05:00:05.940Z,100.00
2023-02-09T05:02:34.211Z,100.00
2023-02-09T05:05:02.801Z,100.00
2023-02-09T05:07:31.067Z,100.00
2023-02-09T05:09:59.143Z,100.00
2023-02-09T05:12:27.426Z,100.00
2023-02-09T05:14:55.897Z,100.00
2023-02-09T05:17:24.072Z,100.00
2023-02-09T05:19:52.582Z,100.00
2023-02-09T05:22:20.932Z,100.00
2023-02-09T05:24:49.311Z,100.00
2023-02-09T05:27:17.795Z,100.00
2023-02-09T05:29:45.868Z,100.00
2023-02-09T05:32:14.191Z,100.00
2023-02-09T05:34:42.626Z,100.00
2023-02-09T05:37:11.110Z,100.00
2023-02-09T05:39:39.488Z,100.00
2023-02-09T05:42:17.090Z,100.00
2023-02-09T05:44:48.606Z,100.00
2023-02-09T05:47:19.739Z,100.00
2023-02-09T05:49:48.711Z,100.00
2023-02-09T05:52:17.559Z,100.00
2023-02-09T05:54:48.497Z,100.00
2023-02-09T05:57:17.903Z,100.00
2023-02-09T05:59:46.075Z,100.00
2023-02-09T06:02:14.277Z,100.00
2023-02-09T06:04:43.343Z,100.00
2023-02-09T06:07:12.112Z,100.00
2023-02-09T06:09:40.436Z,100.00
2023-02-09T06:12:08.890Z,98.43
2023-02-09T06:14:37.169Z,96.83
2023-02-09T06:17:05.644Z,95.64
2023-02-09T06:19:33.820Z,94.95
2023-02-09T06:22:02.508Z,94.04
2023-02-09T06:24:30.583Z,93.50
2023-02-09T06:26:58.956Z,95.46
2023-02-09T06:29:27.649Z,96.37
2023-02-09T06:31:56.153Z,95.08
2023-02-09T06:34:25.734Z,91.76
2023-02-09T06:36:54.018Z,88.57
2023-02-09T06:39:22.596Z,85.32
2023-02-09T06:41:50.669Z,84.51
2023-02-09T06:44:19.990Z,80.13
2023-02-09T06:46:49.065Z,73.89
2023-02-09T06:49:17.244Z,71.71
2023-02-09T06:51:45.618Z,70.08
2023-02-09T06:54:14.103Z,70.04
2023-02-09T06:56:42.172Z,67.59
2023-02-09T06:59:10.493Z,65.96
2023-02-09T07:01:38.964Z,64.51
2023-02-09T07:04:07.414Z,62.53
2023-02-09T07:06:36.126Z,61.54
2023-02-09T07:09:04.989Z,61.77
2023-02-09T07:11:34.395Z,61.71
2023-02-09T07:14:03.488Z,62.37
2023-02-09T07:16:31.662Z,64.41
2023-02-09T07:19:00.582Z,64.61
2023-02-09T07:21:28.835Z,64.96
2023-02-09T07:23:57.101Z,65.68
2023-02-09T07:26:25.589Z,66.51
2023-02-09T07:28:53.663Z,67.38
2023-02-09T07:31:21.838Z,67.93
2023-02-09T07:33:50.316Z,67.19
2023-02-09T07:36:18.397Z,65.80
2023-02-09T07:38:47.118Z,65.93
2023-02-09T07:41:20.741Z,65.57
2023-02-09T07:43:49.044Z,65.89
2023-02-09T07:46:20.047Z,66.20
2023-02-09T07:48:49.539Z,65.73
2023-02-09T07:51:21.048Z,66.23
2023-02-09T07:53:49.124Z,67.24
2023-02-09T07:56:18.015Z,66.86
2023-02-09T07:58:46.186Z,64.82
2023-02-09T08:01:15.088Z,64.42
2023-02-09T08:03:46.845Z,64.31
2023-02-09T08:06:42.832Z,62.30
2023-02-09T08:09:15.072Z,60.39
2023-02-09T08:11:58.935Z,58.97
2023-02-09T08:14:31.120Z,58.51
2023-02-09T08:17:23.485Z,57.94
2023-02-09T08:20:04.512Z,56.36
2023-02-09T08:22:37.654Z,56.14
2023-02-09T08:25:06.657Z,54.80
2023-02-09T08:27:37.291Z,54.38
2023-02-09T08:30:06.618Z,54.17
2023-02-09T08:32:34.955Z,54.15
2023-02-09T08:35:04.058Z,52.34
2023-02-09T08:37:32.946Z,51.75
2023-02-09T08:40:01.225Z,51.08
2023-02-09T08:42:29.602Z,48.01
2023-02-09T08:44:57.672Z,46.67
2023-02-09T08:47:25.746Z,45.40
2023-02-09T08:49:53.817Z,46.11
2023-02-09T08:52:22.104Z,45.59
2023-02-09T08:54:50.490Z,44.64
2023-02-09T08:57:18.853Z,43.44
2023-02-09T08:59:47.130Z,44.09
2023-02-09T09:02:15.515Z,44.63
2023-02-09T09:04:43.994Z,44.87
2023-02-09T09:07:12.371Z,45.19
2023-02-09T09:09:40.545Z,44.08
2023-02-09T09:12:08.924Z,43.35
2023-02-09T09:14:38.033Z,43.56
2023-02-09T09:17:06.401Z,43.13
2023-02-09T09:19:35.086Z,44.10
2023-02-09T09:22:03.882Z,43.96
2023-02-09T09:24:32.869Z,43.27
2023-02-09T09:27:01.461Z,43.46
2023-02-09T09:29:29.636Z,43.20
2023-02-09T09:31:57.814Z,42.83
2023-02-09T09:34:26.521Z,42.61
2023-02-09T09:36:54.772Z,42.07
2023-02-09T09:39:23.145Z,41.86
2023-02-09T09:41:57.673Z,41.72
2023-02-09T09:44:41.311Z,41.89
2023-02-09T09:47:16.238Z,39.91
2023-02-09T09:49:44.922Z,39.57
2023-02-09T09:52:24.829Z,40.79
2023-02-09T09:54:53.354Z,40.72
2023-02-09T09:57:27.696Z,41.27
2023-02-09T09:59:56.983Z,40.86
2023-02-09T10:02:34.609Z,39.75
2023-02-09T10:05:15.216Z,38.15
2023-02-09T10:07:49.962Z,37.64
2023-02-09T10:10:57.388Z,37.10
2023-02-09T10:13:44.694Z,37.73
2023-02-09T10:16:20.263Z,38.10
2023-02-09T10:18:51.589Z,37.36
2023-02-09T10:21:19.954Z,39.00
2023-02-09T10:24:10.455Z,39.40
2023-02-09T10:26:40.803Z,36.97
2023-02-09T10:29:12.134Z,38.47
2023-02-09T10:31:43.414Z,36.82
2023-02-09T10:34:16.671Z,36.11
2023-02-09T10:36:54.687Z,36.74
2023-02-09T10:39:29.402Z,36.40
2023-02-09T10:42:16.320Z,36.68
2023-02-09T10:44:49.856Z,36.11
2023-02-09T10:47:19.009Z,37.69
2023-02-09T10:50:15.237Z,37.88
2023-02-09T10:52:59.720Z,38.76
2023-02-09T10:55:37.909Z,39.37
2023-02-09T10:58:11.334Z,39.47
2023-02-09T11:00:42.444Z,37.93
2023-02-09T11:03:18.195Z,38.55
2023-02-09T11:05:48.010Z,39.03
2023-02-09T11:08:24.651Z,40.49
2023-02-09T11:10:55.838Z,40.25
2023-02-09T11:13:26.675Z,39.90
2023-02-09T11:16:19.812Z,40.16
2023-02-09T11:19:11.352Z,40.68
2023-02-09T11:21:48.536Z,41.20
2023-02-09T11:24:43.523Z,40.63
2023-02-09T11:27:23.427Z,39.54
2023-02-09T11:30:23.349Z,40.14
2023-02-09T11:33:11.245Z,38.94
2023-02-09T11:36:13.722Z,39.06
2023-02-09T11:38:53.060Z,38.14
2023-02-09T11:42:14.994Z,39.08
2023-02-09T11:44:56.585Z,41.36
2023-02-09T11:47:46.170Z,41.81
2023-02-09T11:50:44.573Z,40.46
2023-02-09T11:53:23.363Z,41.37
2023-02-09T11:55:57.898Z,40.36
2023-02-09T11:58:49.109Z,40.91
2023-02-09T12:01:55.062Z,41.73
2023-02-09T12:04:31.886Z,42.35
2023-02-09T12:07:05.338Z,42.02
2023-02-09T12:09:36.891Z,43.01
2023-02-09T12:12:23.807Z,42.73
2023-02-09T12:15:18.200Z,42.94
2023-02-09T12:17:53.214Z,43.64
2023-02-09T12:20:21.510Z,43.47
2023-02-09T12:23:02.815Z,43.28
2023-02-09T12:25:51.417Z,43.91
2023-02-09T12:28:32.774Z,42.94
2023-02-09T12:31:03.197Z,42.90
2023-02-09T12:34:00.712Z,43.24
2023-02-09T12:36:33.371Z,43.56
2023-02-09T12:39:06.192Z,44.27
2023-02-09T12:41:34.479Z,43.98
2023-02-09T12:44:11.941Z,44.72
2023-02-09T12:46:48.615Z,45.50
2023-02-09T12:49:38.805Z,45.28
2023-02-09T12:52:16.504Z,45.42
2023-02-09T12:54:57.687Z,45.11
2023-02-09T12:57:26.371Z,46.55
2023-02-09T12:59:59.762Z,47.09
2023-02-09T13:02:38.588Z,47.09
2023-02-09T13:05:24.894Z,46.52
2023-02-09T13:08:12.010Z,47.14
2023-02-09T13:10:49.107Z,46.70
2023-02-09T13:13:33.152Z,47.00
2023-02-09T13:16:01.527Z,45.95
2023-02-09T13:19:08.201Z,45.19
2023-02-09T13:21:45.594Z,45.20
2023-02-09T13:24:19.849Z,45.43
2023-02-09T13:26:57.407Z,45.90
2023-02-09T13:29:27.966Z,46.18
2023-02-09T13:32:11.372Z,46.38
2023-02-09T13:34:46.811Z,46.45
2023-02-09T13:37:36.496Z,46.16
2023-02-09T13:40:24.841Z,47.23
2023-02-09T13:42:54.750Z,47.15
2023-02-09T13:45:24.280Z,47.41
2023-02-09T13:47:53.351Z,47.69
2023-02-09T13:50:24.299Z,47.70
2023-02-09T13:52:52.566Z,47.22
2023-02-09T13:55:24.501Z,47.08
2023-02-09T13:58:05.371Z,46.48
2023-02-09T14:00:41.578Z,47.03
2023-02-09T14:03:18.240Z,47.23
2023-02-09T14:06:01.899Z,47.22
2023-02-09T14:08:32.710Z,47.98
2023-02-09T14:11:41.989Z,48.40
2023-02-09T14:14:16.806Z,48.90
2023-02-09T14:16:53.444Z,49.43
2023-02-09T14:19:31.204Z,49.34
2023-02-09T14:22:00.411Z,49.88
2023-02-09T14:24:44.291Z,50.20
2023-02-09T14:27:24.098Z,50.23
2023-02-09T14:29:53.640Z,50.72
2023-02-09T14:32:33.340Z,51.78
2023-02-09T14:35:23.676Z,52.48
2023-02-09T14:37:57.767Z,52.49
2023-02-09T14:40:29.868Z,52.50
2023-02-09T14:43:10.325Z,52.82
2023-02-09T14:45:45.863Z,52.83
2023-02-09T14:48:27.255Z,52.96
2023-02-09T14:50:59.536Z,53.17
2023-02-09T14:53:31.323Z,53.44
2023-02-09T14:56:00.182Z,53.64
2023-02-09T14:58:31.606Z,53.78
2023-02-09T15:01:02.896Z,53.83
2023-02-09T15:03:31.160Z,53.74
2023-02-09T15:06:02.609Z,53.47
2023-02-09T15:08:35.478Z,53.52
2023-02-09T15:11:26.087Z,53.98
2023-02-09T15:14:03.915Z,54.09
2023-02-09T15:16:32.878Z,54.40
2023-02-09T15:19:05.458Z,54.38
2023-02-09T15:21:34.041Z,54.44
2023-02-09T15:24:02.730Z,54.56
2023-02-09T15:26:34.750Z,54.73
2023-02-09T15:29:09.898Z,55.55
2023-02-09T15:31:38.165Z,55.39
2023-02-09T15:34:06.888Z,55.54
2023-02-09T15:36:35.212Z,55.78
2023-02-09T15:39:04.627Z,56.15
2023-02-09T15:41:51.480Z,56.38
2023-02-09T15:44:40.034Z,57.22
2023-02-09T15:47:27.460Z,57.05
2023-02-09T15:49:55.742Z,57.33
2023-02-09T15:52:24.406Z,57.10
2023-02-09T15:54:53.518Z,57.67
2023-02-09T15:57:25.315Z,57.49
2023-02-09T15:59:53.555Z,58.22
2023-02-09T16:02:22.564Z,58.11
2023-02-09T16:04:50.933Z,58.31
2023-02-09T16:07:25.385Z,59.47
2023-02-09T16:09:53.951Z,59.64
2023-02-09T16:12:22.472Z,59.74
2023-02-09T16:14:53.075Z,60.11
2023-02-09T16:17:21.631Z,61.15
2023-02-09T16:19:49.701Z,61.89
2023-02-09T16:22:22.790Z,62.41
2023-02-09T16:24:51.476Z,62.52
2023-02-09T16:27:25.386Z,62.03
2023-02-09T16:29:54.792Z,62.68
2023-02-09T16:32:24.688Z,62.51
2023-02-09T16:34:52.883Z,62.45
2023-02-09T16:37:32.119Z,62.86
2023-02-09T16:40:01.825Z,62.92
2023-02-09T16:42:30.001Z,63.05
2023-02-09T16:44:58.488Z,63.50
2023-02-09T16:47:28.506Z,63.80
2023-02-09T16:49:59.259Z,64.27
2023-02-09T16:52:30.431Z,64.41
2023-02-09T16:55:01.137Z,64.33
2023-02-09T16:57:29.504Z,66.11
2023-02-09T16:59:57.920Z,69.73
2023-02-09T17:02:40.952Z,69.64
2023-02-09T17:05:44.084Z,67.99
2023-02-09T17:08:16.362Z,67.15
2023-02-09T17:10:46.396Z,67.29
2023-02-09T17:13:17.622Z,67.60
2023-02-09T17:15:52.007Z,68.10
2023-02-09T17:18:29.639Z,69.94
2023-02-09T17:21:00.065Z,69.89
2023-02-09T17:23:29.979Z,69.74
2023-02-09T17:25:58.872Z,69.37
2023-02-09T17:28:28.229Z,69.60
2023-02-09T17:31:02.291Z,69.72
2023-02-09T17:33:33.616Z,70.14
2023-02-09T17:38:52.353Z,70.82
2023-02-09T17:41:24.577Z,71.35
2023-02-09T17:43:53.775Z,71.44
2023-02-09T17:46:22.914Z,72.55
2023-02-09T17:48:51.349Z,73.16
2023-02-09T17:51:23.539Z,74.24
2023-02-09T17:53:51.901Z,74.24
2023-02-09T17:56:20.078Z,74.89
2023-02-09T17:58:48.558Z,75.07
2023-02-09T18:01:28.890Z,74.52
2023-02-09T18:04:00.040Z,74.51
2023-02-09T18:06:36.228Z,74.26
2023-02-09T18:09:07.620Z,74.15
2023-02-09T18:11:45.165Z,74.20
2023-02-09T18:14:17.396Z,73.94
2023-02-09T18:16:47.190Z,75.13
2023-02-09T18:19:18.396Z,75.32
2023-02-09T18:21:54.966Z,74.95
2023-02-09T18:24:25.286Z,76.68
2023-02-09T18:26:53.676Z,78.32
2023-02-09T18:29:23.871Z,79.40
2023-02-09T18:31:52.268Z,78.25
2023-02-09T18:34:20.542Z,78.40
2023-02-09T18:36:49.260Z,79.38
2023-02-09T18:39:17.846Z,78.82
2023-02-09T18:41:51.413Z,78.52
2023-02-09T18:44:28.724Z,78.46
2023-02-09T18:47:00.673Z,79.62
2023-02-09T18:49:29.668Z,80.00
2023-02-09T18:51:59.660Z,79.50
2023-02-09T18:54:29.291Z,80.00
2023-02-09T18:56:57.592Z,80.45
2023-02-09T18:59:32.601Z,80.43
2023-02-09T19:02:01.235Z,80.67
2023-02-09T19:04:29.668Z,81.00
2023-02-09T19:06:58.764Z,80.80
2023-02-09T19:09:27.036Z,81.15
2023-02-09T19:11:55.418Z,81.74
2023-02-09T19:14:39.359Z,81.67
2023-02-09T19:17:14.965Z,81.77
2023-02-09T19:19:44.808Z,82.15
2023-02-09T19:22:21.499Z,83.44
2023-02-09T19:24:52.979Z,84.66
2023-02-09T19:27:21.777Z,84.37
2023-02-09T19:29:56.558Z,83.68
2023-02-09T19:32:26.602Z,84.20
2023-02-09T19:34:54.863Z,83.95
2023-02-09T19:37:23.342Z,83.83
2023-02-09T19:40:04.199Z,85.76
2023-02-09T19:42:33.665Z,87.12
2023-02-09T19:45:02.436Z,87.63
2023-02-09T19:47:30.580Z,87.47
2023-02-09T19:49:58.856Z,87.40
2023-02-09T19:52:28.169Z,86.70
2023-02-09T19:54:57.948Z,88.18
2023-02-09T19:57:26.977Z,90.01
2023-02-09T19:59:55.654Z,89.59
2023-02-09T20:02:23.956Z,88.24
2023-02-09T20:04:52.798Z,87.79
2023-02-09T20:07:22.120Z,87.42
2023-02-09T20:09:52.486Z,87.20
2023-02-09T20:12:22.194Z,86.93
2023-02-09T20:14:51.014Z,87.09
2023-02-09T20:19:52.476Z,87.91
2023-02-09T20:22:21.711Z,87.96
2023-02-09T20:24:50.117Z,89.15
2023-02-09T20:27:19.294Z,89.38
2023-02-09T20:29:47.668Z,88.58
2023-02-09T20:32:16.153Z,88.39
2023-02-09T20:34:44.285Z,88.63
2023-02-09T20:37:12.804Z,89.34
2023-02-09T20:39:40.879Z,88.95
2023-02-09T20:42:28.097Z,89.47
2023-02-09T20:45:15.121Z,89.48
2023-02-09T20:47:43.706Z,89.12
2023-02-09T20:50:13.925Z,88.87
2023-02-09T20:52:42.543Z,90.34
2023-02-09T20:55:10.611Z,90.03
2023-02-09T20:57:38.958Z,89.43
2023-02-09T21:00:09.753Z,89.67
2023-02-09T21:02:38.694Z,89.50
2023-02-09T21:05:07.574Z,89.91
2023-02-09T21:07:36.176Z,89.85
2023-02-09T21:10:04.499Z,90.00
2023-02-09T21:12:32.919Z,89.78
2023-02-09T21:15:01.911Z,90.10
2023-02-09T21:17:30.189Z,90.63
2023-02-09T21:19:58.564Z,90.72
2023-02-09T21:22:26.949Z,90.92
2023-02-09T21:24:55.125Z,90.88
2023-02-09T21:27:26.182Z,90.55
2023-02-09T21:29:54.743Z,90.64
2023-02-09T21:32:23.033Z,90.85
2023-02-09T21:34:51.408Z,90.83
2023-02-09T21:37:19.782Z,90.91
2023-02-09T21:39:48.160Z,91.74
2023-02-09T21:42:28.932Z,93.11
2023-02-09T21:44:58.691Z,93.01
2023-02-09T21:47:33.361Z,93.10
2023-02-09T21:50:02.047Z,92.23
2023-02-09T21:52:31.657Z,93.68
2023-02-09T21:55:00.799Z,94.34
2023-02-09T21:57:29.750Z,93.46
2023-02-09T21:59:59.162Z,94.47
2023-02-09T22:02:27.645Z,94.57
2023-02-09T22:04:56.212Z,94.25
2023-02-09T22:07:24.592Z,94.76
2023-02-09T22:09:52.869Z,94.75
2023-02-09T22:12:21.245Z,94.80
2023-02-09T22:14:49.731Z,94.92
2023-02-09T22:17:18.105Z,94.90
2023-02-09T22:19:46.380Z,95.36
2023-02-09T22:22:14.560Z,95.40
2023-02-09T22:24:43.036Z,95.91
2023-02-09T22:27:11.213Z,95.55
2023-02-09T22:29:39.606Z,97.37
2023-02-09T22:32:08.072Z,97.53
2023-02-09T22:34:36.656Z,96.85
2023-02-09T22:37:04.978Z,96.62
2023-02-09T22:39:33.312Z,96.81
2023-02-09T22:42:01.690Z,96.87
2023-02-09T22:44:30.708Z,96.68
2023-02-09T22:46:58.859Z,96.47
2023-02-09T22:49:28.270Z,96.52
2023-02-09T22:51:56.371Z,96.90
2023-02-09T22:54:25.055Z,96.71
2023-02-09T22:56:53.507Z,96.25
2023-02-09T22:59:21.788Z,96.44
2023-02-09T23:01:50.165Z,96.44
2023-02-09T23:04:18.703Z,96.45
2023-02-09T23:06:47.544Z,97.00
2023-02-09T23:09:16.842Z,97.49
2023-02-09T23:11:45.331Z,97.51
2023-02-09T23:14:13.812Z,98.49
2023-02-09T23:16:44.858Z,99.07
2023-02-09T23:19:16.739Z,98.39
2023-02-09T23:21:47.918Z,98.44
2023-02-09T23:24:18.391Z,98.24
2023-02-09T23:26:46.668Z,98.71
2023-02-09T23:29:16.474Z,98.25
2023-02-09T23:31:46.119Z,98.44
2023-02-09T23:34:17.649Z,98.55
2023-02-09T23:36:46.623Z,98.45
2023-02-09T23:39:18.362Z,98.56
2023-02-09T23:41:47.396Z,99.61
2023-02-09T23:44:15.962Z,99.78
2023-02-09T23:46:44.986Z,99.36
2023-02-09T23:49:13.335Z,99.27
2023-02-09T23:51:42.028Z,98.96
2023-02-09T23:54:11.054Z,98.74
2023-02-09T23:56:39.318Z,99.18
2023-02-09T23:59:13.141Z,98.63
